SBOSBO MTH / KMTH
Speedbird OnlineSpeedbird Online MTH / KMTH

The Florida Keys Marathon Airport
03:48 28.7°C

Location Marathon, United States
Latitude: 24.726101
Longitude: -81.051399
Altitude 2 Meter / 5 Feet
Distance 7,287 KM / 4,528 Miles
from London.
Time Zone UTC -4 hours (America/New_York)
Codes IATA: MTH
ICAO: KMTH
Currency £1 equals USD 1.22
METAR KMTH 290653Z AUTO 11004KT 10SM CLR 29/25 A2986 RMK AO2 SLP112 T02890250
TAF KMTH 290538Z 2906/3006 10005KT P6SM FEW025 BKN120
Weather As Of 29 Sep 2023 03:48
Description Clear sky
Wind 7 km/h from East (110°)
Cloud Cover 0%
Precipitation Rain: none, Snow: none
Sunrise 07:15
Sunset 19:13



Support Speedbird Online

© 2017-2023 Speedbird Online